Chilik Southeast Airfield

Jump to: basic info | weather | comments

Related pages: nearby airports | nearby navaids

Basic information (top)

Location: lon 43.223598, lat 78.732399, elev 4,497 ft / 1,371 m msl
Status: small_airport

Weather (top)

Current conditions for Almaty Airport 74nm (138km) W (rec'd 2014/11/01 04:00Z):

UAAA 010400Z 21003MPS 5000 BR FU NSC 05/M01 Q1020 R88/65D NOSIG

Airport forecast for Almaty Airport 74nm (138km) W (rec'd 2014/10/31 00:18Z):

TAF TAF UAAA 312300Z 0100/0124 16004MPS 1500 BR FU BKN100 TX11/0108Z TNM02/0101Z 
      TEMPO 0100/0105 0300 FZFG 
      BECMG 0105/0106 02005MPS 9999 NSW 
      BECMG 0111/0112 16004MPS 3000 BR FU NSC 
      TEMPO 0112/0121 0600

Latest comments (top)

Spelling: OK oK its Kazakhstan♄, so you have a ... [read]

Airfield: I came across this airfield on Google, ... [read]

More... (top)

See also NOTAMs and nearby airports and navaids, or visit the Chilik Southeast Airfield page at the main OurAirports website..